sensor_id;sensor_type;location;lat;lon;timestamp;temperature;humidity
52285;DHT22;38238;53.304;6.606;2023-01-04T00:00:35;8.20;99.90
52285;DHT22;38238;53.304;6.606;2023-01-04T00:03:01;8.00;99.90
52285;DHT22;38238;53.304;6.606;2023-01-04T00:05:26;8.00;99.90
52285;DHT22;38238;53.304;6.606;2023-01-04T00:07:52;8.00;99.90
52285;DHT22;38238;53.304;6.606;2023-01-04T00:10:18;8.10;99.90
52285;DHT22;38238;53.304;6.606;2023-01-04T00:12:44;8.10;99.90
52285;DHT22;38238;53.304;6.606;2023-01-04T00:15:10;8.10;99.90
52285;DHT22;38238;53.304;6.606;2023-01-04T00:17:35;8.10;99.90
52285;DHT22;38238;53.304;6.606;2023-01-04T00:20:01;8.10;99.90
52285;DHT22;38238;53.304;6.606;2023-01-04T00:22:27;8.10;99.90
52285;DHT22;38238;53.304;6.606;2023-01-04T00:24:53;8.10;99.90
52285;DHT22;38238;53.304;6.606;2023-01-04T00:27:18;8.10;99.90
52285;DHT22;38238;53.304;6.606;2023-01-04T00:29:44;8.40;99.90
52285;DHT22;38238;53.304;6.606;2023-01-04T00:32:10;8.10;99.90
52285;DHT22;38238;53.304;6.606;2023-01-04T00:34:35;8.00;99.90
52285;DHT22;38238;53.304;6.606;2023-01-04T00:37:01;8.00;99.90
52285;DHT22;38238;53.304;6.606;2023-01-04T00:39:27;7.90;99.90
52285;DHT22;38238;53.304;6.606;2023-01-04T00:41:54;7.90;99.90
52285;DHT22;38238;53.304;6.606;2023-01-04T00:44:33;7.80;99.90
52285;DHT22;38238;53.304;6.606;2023-01-04T00:47:01;7.80;99.90
52285;DHT22;38238;53.304;6.606;2023-01-04T00:49:28;7.70;99.90
52285;DHT22;38238;53.304;6.606;2023-01-04T00:51:55;7.70;99.90
52285;DHT22;38238;53.304;6.606;2023-01-04T00:54:21;7.80;99.90
52285;DHT22;38238;53.304;6.606;2023-01-04T00:56:46;7.60;99.90
52285;DHT22;38238;53.304;6.606;2023-01-04T00:59:15;7.60;99.90
52285;DHT22;38238;53.304;6.606;2023-01-04T01:01:42;7.60;99.90
52285;DHT22;38238;53.304;6.606;2023-01-04T01:04:13;7.60;99.90
52285;DHT22;38238;53.304;6.606;2023-01-04T01:06:40;7.60;99.90
52285;DHT22;38238;53.304;6.606;2023-01-04T01:09:06;7.60;99.90
52285;DHT22;38238;53.304;6.606;2023-01-04T01:11:32;7.50;99.90
52285;DHT22;38238;53.304;6.606;2023-01-04T01:13:58;7.70;99.90
52285;DHT22;38238;53.304;6.606;2023-01-04T01:16:24;7.50;99.90
52285;DHT22;38238;53.304;6.606;2023-01-04T01:18:52;7.80;99.90
52285;DHT22;38238;53.304;6.606;2023-01-04T01:21:27;7.60;99.90
52285;DHT22;38238;53.304;6.606;2023-01-04T01:23:54;7.60;99.90
52285;DHT22;38238;53.304;6.606;2023-01-04T01:26:21;7.90;99.90
52285;DHT22;38238;53.304;6.606;2023-01-04T01:28:48;7.60;99.90
52285;DHT22;38238;53.304;6.606;2023-01-04T01:31:17;7.60;99.90
52285;DHT22;38238;53.304;6.606;2023-01-04T01:33:45;7.60;99.90
52285;DHT22;38238;53.304;6.606;2023-01-04T01:36:13;7.60;99.90
52285;DHT22;38238;53.304;6.606;2023-01-04T01:38:39;7.60;99.90
52285;DHT22;38238;53.304;6.606;2023-01-04T01:41:06;7.60;99.90
52285;DHT22;38238;53.304;6.606;2023-01-04T01:43:55;7.60;99.90
52285;DHT22;38238;53.304;6.606;2023-01-04T01:46:29;7.60;99.90
52285;DHT22;38238;53.304;6.606;2023-01-04T01:49:08;8.00;99.90
52285;DHT22;38238;53.304;6.606;2023-01-04T01:51:34;7.60;99.90
52285;DHT22;38238;53.304;6.606;2023-01-04T01:54:05;7.60;99.90
52285;DHT22;38238;53.304;6.606;2023-01-04T01:56:36;7.60;99.90
52285;DHT22;38238;53.304;6.606;2023-01-04T01:59:02;7.60;99.90
52285;DHT22;38238;53.304;6.606;2023-01-04T02:01:29;7.50;99.90
52285;DHT22;38238;53.304;6.606;2023-01-04T02:03:55;7.50;99.90
52285;DHT22;38238;53.304;6.606;2023-01-04T02:06:26;7.50;99.90
52285;DHT22;38238;53.304;6.606;2023-01-04T02:08:53;7.50;99.90
52285;DHT22;38238;53.304;6.606;2023-01-04T02:11:19;8.00;99.90
52285;DHT22;38238;53.304;6.606;2023-01-04T02:13:46;7.60;99.90
52285;DHT22;38238;53.304;6.606;2023-01-04T02:35:24;7.60;99.90
52285;DHT22;38238;53.304;6.606;2023-01-04T02:40:59;7.60;99.90
52285;DHT22;38238;53.304;6.606;2023-01-04T02:44:10;7.70;99.90
52285;DHT22;38238;53.304;6.606;2023-01-04T02:46:56;7.70;99.90
52285;DHT22;38238;53.304;6.606;2023-01-04T02:49:23;7.80;99.90
52285;DHT22;38238;53.304;6.606;2023-01-04T02:52:07;7.80;99.90
52285;DHT22;38238;53.304;6.606;2023-01-04T02:54:33;7.80;99.90
52285;DHT22;38238;53.304;6.606;2023-01-04T02:57:28;7.80;99.90
52285;DHT22;38238;53.304;6.606;2023-01-04T03:00:02;7.80;99.90
52285;DHT22;38238;53.304;6.606;2023-01-04T03:03:09;7.90;99.90
52285;DHT22;38238;53.304;6.606;2023-01-04T03:09:08;7.90;99.90
52285;DHT22;38238;53.304;6.606;2023-01-04T03:11:55;7.90;99.90
52285;DHT22;38238;53.304;6.606;2023-01-04T03:15:00;8.00;99.90
52285;DHT22;38238;53.304;6.606;2023-01-04T03:17:34;8.00;99.90
52285;DHT22;38238;53.304;6.606;2023-01-04T03:20:00;8.00;99.90
52285;DHT22;38238;53.304;6.606;2023-01-04T03:22:33;8.00;99.90
52285;DHT22;38238;53.304;6.606;2023-01-04T03:25:26;8.10;99.90
52285;DHT22;38238;53.304;6.606;2023-01-04T03:28:13;8.10;99.90
52285;DHT22;38238;53.304;6.606;2023-01-04T03:31:03;8.10;99.90
52285;DHT22;38238;53.304;6.606;2023-01-04T03:33:49;8.20;99.90
52285;DHT22;38238;53.304;6.606;2023-01-04T03:37:07;8.20;99.90
52285;DHT22;38238;53.304;6.606;2023-01-04T03:40:16;8.20;99.90
52285;DHT22;38238;53.304;6.606;2023-01-04T03:46:15;8.30;99.90
52285;DHT22;38238;53.304;6.606;2023-01-04T03:51:36;8.40;99.90
52285;DHT22;38238;53.304;6.606;2023-01-04T03:54:03;8.40;99.90
52285;DHT22;38238;53.304;6.606;2023-01-04T03:56:31;8.80;99.90
52285;DHT22;38238;53.304;6.606;2023-01-04T03:58:58;8.50;99.90
52285;DHT22;38238;53.304;6.606;2023-01-04T04:01:25;8.50;99.90
52285;DHT22;38238;53.304;6.606;2023-01-04T04:03:52;8.60;99.90
52285;DHT22;38238;53.304;6.606;2023-01-04T04:06:36;8.60;99.90
52285;DHT22;38238;53.304;6.606;2023-01-04T04:09:21;8.60;99.90
52285;DHT22;38238;53.304;6.606;2023-01-04T04:11:46;8.70;99.90
52285;DHT22;38238;53.304;6.606;2023-01-04T04:14:12;7.30;99.90
52285;DHT22;38238;53.304;6.606;2023-01-04T04:16:38;8.80;99.90
52285;DHT22;38238;53.304;6.606;2023-01-04T04:19:04;9.00;99.90
52285;DHT22;38238;53.304;6.606;2023-01-04T04:21:29;8.90;99.90
52285;DHT22;38238;53.304;6.606;2023-01-04T04:23:55;9.00;99.90
52285;DHT22;38238;53.304;6.606;2023-01-04T04:26:21;9.00;99.90
52285;DHT22;38238;53.304;6.606;2023-01-04T04:28:48;9.00;99.90
52285;DHT22;38238;53.304;6.606;2023-01-04T04:31:13;9.10;99.90
52285;DHT22;38238;53.304;6.606;2023-01-04T04:33:39;9.10;99.90
52285;DHT22;38238;53.304;6.606;2023-01-04T04:36:06;9.20;99.90
52285;DHT22;38238;53.304;6.606;2023-01-04T04:38:32;9.20;99.90
52285;DHT22;38238;53.304;6.606;2023-01-04T04:40:57;9.30;99.90
52285;DHT22;38238;53.304;6.606;2023-01-04T04:43:41;9.30;99.90
52285;DHT22;38238;53.304;6.606;2023-01-04T04:46:07;9.40;99.90
52285;DHT22;38238;53.304;6.606;2023-01-04T04:48:33;8.90;99.90
52285;DHT22;38238;53.304;6.606;2023-01-04T04:50:59;9.50;99.90
52285;DHT22;38238;53.304;6.606;2023-01-04T04:53:25;9.50;99.90
52285;DHT22;38238;53.304;6.606;2023-01-04T04:55:51;9.60;99.90
52285;DHT22;38238;53.304;6.606;2023-01-04T04:58:17;9.60;99.90
52285;DHT22;38238;53.304;6.606;2023-01-04T05:00:43;9.70;99.90
52285;DHT22;38238;53.304;6.606;2023-01-04T05:03:09;9.70;99.90
52285;DHT22;38238;53.304;6.606;2023-01-04T05:05:34;9.70;99.90
52285;DHT22;38238;53.304;6.606;2023-01-04T05:08:00;9.80;99.90
52285;DHT22;38238;53.304;6.606;2023-01-04T05:10:26;9.80;99.90
52285;DHT22;38238;53.304;6.606;2023-01-04T05:12:52;9.80;99.90
52285;DHT22;38238;53.304;6.606;2023-01-04T05:15:38;9.80;99.90
52285;DHT22;38238;53.304;6.606;2023-01-04T05:18:06;9.90;99.90
52285;DHT22;38238;53.304;6.606;2023-01-04T05:20:32;9.90;99.90
52285;DHT22;38238;53.304;6.606;2023-01-04T05:22:58;9.90;99.90
52285;DHT22;38238;53.304;6.606;2023-01-04T05:25:24;9.90;99.90
52285;DHT22;38238;53.304;6.606;2023-01-04T05:27:50;10.00;99.90
52285;DHT22;38238;53.304;6.606;2023-01-04T05:30:16;10.00;99.90
52285;DHT22;38238;53.304;6.606;2023-01-04T05:33:01;9.90;99.90
52285;DHT22;38238;53.304;6.606;2023-01-04T05:35:27;10.00;99.90
52285;DHT22;38238;53.304;6.606;2023-01-04T05:37:53;10.00;99.90
52285;DHT22;38238;53.304;6.606;2023-01-04T05:40:20;10.00;99.90
52285;DHT22;38238;53.304;6.606;2023-01-04T05:42:46;10.10;99.90
52285;DHT22;38238;53.304;6.606;2023-01-04T05:45:13;10.10;99.90
52285;DHT22;38238;53.304;6.606;2023-01-04T05:47:39;10.10;99.90
52285;DHT22;38238;53.304;6.606;2023-01-04T05:50:09;10.10;99.90
52285;DHT22;38238;53.304;6.606;2023-01-04T05:52:35;10.10;99.90
52285;DHT22;38238;53.304;6.606;2023-01-04T05:55:01;10.10;99.90
52285;DHT22;38238;53.304;6.606;2023-01-04T05:57:26;10.10;99.90
52285;DHT22;38238;53.304;6.606;2023-01-04T05:59:52;10.10;99.90
52285;DHT22;38238;53.304;6.606;2023-01-04T06:02:27;10.10;99.90
52285;DHT22;38238;53.304;6.606;2023-01-04T06:04:53;10.10;99.90
52285;DHT22;38238;53.304;6.606;2023-01-04T06:07:18;10.10;99.90
52285;DHT22;38238;53.304;6.606;2023-01-04T06:09:44;10.10;99.90
52285;DHT22;38238;53.304;6.606;2023-01-04T06:12:11;10.10;99.90
52285;DHT22;38238;53.304;6.606;2023-01-04T06:14:36;10.10;99.90
52285;DHT22;38238;53.304;6.606;2023-01-04T06:17:02;10.10;99.90
52285;DHT22;38238;53.304;6.606;2023-01-04T06:19:29;10.10;99.90
52285;DHT22;38238;53.304;6.606;2023-01-04T06:21:54;10.10;99.90
52285;DHT22;38238;53.304;6.606;2023-01-04T06:24:20;10.10;99.90
52285;DHT22;38238;53.304;6.606;2023-01-04T06:26:46;10.20;99.90
52285;DHT22;38238;53.304;6.606;2023-01-04T06:29:12;10.10;99.90
52285;DHT22;38238;53.304;6.606;2023-01-04T06:31:37;10.10;99.90
52285;DHT22;38238;53.304;6.606;2023-01-04T06:34:03;10.20;99.90
52285;DHT22;38238;53.304;6.606;2023-01-04T06:36:29;10.20;99.90
52285;DHT22;38238;53.304;6.606;2023-01-04T06:38:59;10.20;99.90
52285;DHT22;38238;53.304;6.606;2023-01-04T06:41:25;10.20;99.90
52285;DHT22;38238;53.304;6.606;2023-01-04T06:43:52;10.20;99.90
52285;DHT22;38238;53.304;6.606;2023-01-04T06:46:18;10.20;99.90
52285;DHT22;38238;53.304;6.606;2023-01-04T06:48:43;10.20;99.90
52285;DHT22;38238;53.304;6.606;2023-01-04T06:51:09;10.20;99.90
52285;DHT22;38238;53.304;6.606;2023-01-04T06:53:35;10.20;99.90
52285;DHT22;38238;53.304;6.606;2023-01-04T06:56:01;10.30;99.90
52285;DHT22;38238;53.304;6.606;2023-01-04T06:58:26;10.30;99.90
52285;DHT22;38238;53.304;6.606;2023-01-04T07:00:53;10.20;99.90
52285;DHT22;38238;53.304;6.606;2023-01-04T07:03:19;10.20;99.90
52285;DHT22;38238;53.304;6.606;2023-01-04T07:05:45;10.30;99.90
52285;DHT22;38238;53.304;6.606;2023-01-04T07:08:12;10.30;99.90
52285;DHT22;38238;53.304;6.606;2023-01-04T07:10:38;10.30;99.90
52285;DHT22;38238;53.304;6.606;2023-01-04T07:13:04;10.30;99.90
52285;DHT22;38238;53.304;6.606;2023-01-04T07:15:30;10.30;99.90
52285;DHT22;38238;53.304;6.606;2023-01-04T07:17:56;10.30;99.90
52285;DHT22;38238;53.304;6.606;2023-01-04T07:20:21;10.30;99.90
52285;DHT22;38238;53.304;6.606;2023-01-04T07:22:50;10.30;99.90
52285;DHT22;38238;53.304;6.606;2023-01-04T07:25:16;10.30;99.90
52285;DHT22;38238;53.304;6.606;2023-01-04T07:27:42;10.30;99.90
52285;DHT22;38238;53.304;6.606;2023-01-04T07:30:08;10.30;99.90
52285;DHT22;38238;53.304;6.606;2023-01-04T07:32:34;10.30;99.90
52285;DHT22;38238;53.304;6.606;2023-01-04T07:35:00;10.30;99.90
52285;DHT22;38238;53.304;6.606;2023-01-04T07:37:25;10.30;99.90
52285;DHT22;38238;53.304;6.606;2023-01-04T07:39:51;10.30;99.90
52285;DHT22;38238;53.304;6.606;2023-01-04T07:42:17;10.30;99.90
52285;DHT22;38238;53.304;6.606;2023-01-04T07:44:44;10.30;99.90
52285;DHT22;38238;53.304;6.606;2023-01-04T07:47:10;10.40;99.90
52285;DHT22;38238;53.304;6.606;2023-01-04T07:49:36;10.40;99.90
52285;DHT22;38238;53.304;6.606;2023-01-04T07:52:02;10.30;99.90
52285;DHT22;38238;53.304;6.606;2023-01-04T07:54:28;10.30;99.90
52285;DHT22;38238;53.304;6.606;2023-01-04T07:56:53;10.30;99.90
52285;DHT22;38238;53.304;6.606;2023-01-04T07:59:19;10.30;99.90
52285;DHT22;38238;53.304;6.606;2023-01-04T08:01:46;10.30;99.90
52285;DHT22;38238;53.304;6.606;2023-01-04T08:04:14;10.30;99.90
52285;DHT22;38238;53.304;6.606;2023-01-04T08:06:41;10.30;99.90
52285;DHT22;38238;53.304;6.606;2023-01-04T08:09:09;10.30;99.90
52285;DHT22;38238;53.304;6.606;2023-01-04T08:11:34;10.30;99.90
52285;DHT22;38238;53.304;6.606;2023-01-04T08:14:00;10.30;99.90
52285;DHT22;38238;53.304;6.606;2023-01-04T08:16:32;10.30;99.90
52285;DHT22;38238;53.304;6.606;2023-01-04T08:19:00;10.30;99.90
52285;DHT22;38238;53.304;6.606;2023-01-04T08:21:27;10.30;99.90
52285;DHT22;38238;53.304;6.606;2023-01-04T08:23:53;10.30;99.90
52285;DHT22;38238;53.304;6.606;2023-01-04T08:26:20;10.30;99.90
52285;DHT22;38238;53.304;6.606;2023-01-04T08:28:46;10.30;99.90
52285;DHT22;38238;53.304;6.606;2023-01-04T08:31:23;10.30;99.90
52285;DHT22;38238;53.304;6.606;2023-01-04T08:33:50;10.30;99.90
52285;DHT22;38238;53.304;6.606;2023-01-04T08:36:20;10.30;99.90
52285;DHT22;38238;53.304;6.606;2023-01-04T08:38:47;10.30;99.90
52285;DHT22;38238;53.304;6.606;2023-01-04T08:41:14;10.40;99.90
52285;DHT22;38238;53.304;6.606;2023-01-04T08:43:40;10.30;99.90
52285;DHT22;38238;53.304;6.606;2023-01-04T08:46:06;10.40;99.90
52285;DHT22;38238;53.304;6.606;2023-01-04T08:48:33;10.40;99.90
52285;DHT22;38238;53.304;6.606;2023-01-04T08:51:01;10.40;99.90
52285;DHT22;38238;53.304;6.606;2023-01-04T08:53:27;10.40;99.90
52285;DHT22;38238;53.304;6.606;2023-01-04T08:55:53;10.40;99.90
52285;DHT22;38238;53.304;6.606;2023-01-04T08:58:19;10.40;99.90
52285;DHT22;38238;53.304;6.606;2023-01-04T09:00:45;10.40;99.90
52285;DHT22;38238;53.304;6.606;2023-01-04T09:03:11;10.40;99.90
52285;DHT22;38238;53.304;6.606;2023-01-04T09:05:37;10.40;99.90
52285;DHT22;38238;53.304;6.606;2023-01-04T09:08:03;10.40;99.90
52285;DHT22;38238;53.304;6.606;2023-01-04T09:10:29;10.40;99.90
52285;DHT22;38238;53.304;6.606;2023-01-04T09:12:55;10.40;99.90
52285;DHT22;38238;53.304;6.606;2023-01-04T09:15:21;10.40;99.90
52285;DHT22;38238;53.304;6.606;2023-01-04T09:17:48;10.40;99.90
52285;DHT22;38238;53.304;6.606;2023-01-04T09:20:14;10.40;99.90
52285;DHT22;38238;53.304;6.606;2023-01-04T09:22:41;10.40;99.90
52285;DHT22;38238;53.304;6.606;2023-01-04T09:25:07;10.40;99.90
52285;DHT22;38238;53.304;6.606;2023-01-04T09:27:33;10.50;99.90
52285;DHT22;38238;53.304;6.606;2023-01-04T09:29:59;10.40;99.90
52285;DHT22;38238;53.304;6.606;2023-01-04T09:32:25;10.50;99.90
52285;DHT22;38238;53.304;6.606;2023-01-04T09:34:51;10.50;99.90
52285;DHT22;38238;53.304;6.606;2023-01-04T09:37:17;10.50;99.90
52285;DHT22;38238;53.304;6.606;2023-01-04T09:39:43;10.50;99.90
52285;DHT22;38238;53.304;6.606;2023-01-04T09:42:21;10.50;99.90
52285;DHT22;38238;53.304;6.606;2023-01-04T09:45:21;10.60;99.90
52285;DHT22;38238;53.304;6.606;2023-01-04T09:48:03;10.60;99.90
52285;DHT22;38238;53.304;6.606;2023-01-04T09:50:49;10.60;99.90
52285;DHT22;38238;53.304;6.606;2023-01-04T09:53:23;10.60;99.90
52285;DHT22;38238;53.304;6.606;2023-01-04T09:55:56;10.70;99.90
52285;DHT22;38238;53.304;6.606;2023-01-04T09:58:33;10.70;99.90
52285;DHT22;38238;53.304;6.606;2023-01-04T10:01:13;10.70;99.90
52285;DHT22;38238;53.304;6.606;2023-01-04T10:06:32;10.70;99.90
52285;DHT22;38238;53.304;6.606;2023-01-04T10:09:03;10.70;99.90
52285;DHT22;38238;53.304;6.606;2023-01-04T10:14:24;10.80;99.90
52285;DHT22;38238;53.304;6.606;2023-01-04T10:17:25;10.80;99.90
52285;DHT22;38238;53.304;6.606;2023-01-04T10:20:02;10.80;99.90
52285;DHT22;38238;53.304;6.606;2023-01-04T10:25:23;10.80;99.90
52285;DHT22;38238;53.304;6.606;2023-01-04T10:31:26;10.90;99.90
52285;DHT22;38238;53.304;6.606;2023-01-04T10:34:26;10.90;99.90
52285;DHT22;38238;53.304;6.606;2023-01-04T10:37:14;10.90;99.90
52285;DHT22;38238;53.304;6.606;2023-01-04T10:39:42;11.00;99.90
52285;DHT22;38238;53.304;6.606;2023-01-04T10:42:17;11.00;99.90
52285;DHT22;38238;53.304;6.606;2023-01-04T10:50:56;11.00;99.90
52285;DHT22;38238;53.304;6.606;2023-01-04T10:56:14;11.00;99.90
52285;DHT22;38238;53.304;6.606;2023-01-04T10:58:46;11.00;99.90
52285;DHT22;38238;53.304;6.606;2023-01-04T11:01:21;11.10;99.90
52285;DHT22;38238;53.304;6.606;2023-01-04T11:06:56;11.10;99.90
52285;DHT22;38238;53.304;6.606;2023-01-04T11:09:33;11.10;99.90
52285;DHT22;38238;53.304;6.606;2023-01-04T11:12:02;11.10;99.90
52285;DHT22;38238;53.304;6.606;2023-01-04T11:14:28;11.20;99.90
52285;DHT22;38238;53.304;6.606;2023-01-04T11:16:58;11.10;99.90
52285;DHT22;38238;53.304;6.606;2023-01-04T11:19:27;11.20;99.90
52285;DHT22;38238;53.304;6.606;2023-01-04T11:24:31;11.20;99.90
52285;DHT22;38238;53.304;6.606;2023-01-04T11:27:02;11.20;99.90
52285;DHT22;38238;53.304;6.606;2023-01-04T11:29:53;11.20;99.90
52285;DHT22;38238;53.304;6.606;2023-01-04T11:32:38;11.20;99.90
52285;DHT22;38238;53.304;6.606;2023-01-04T11:35:07;11.20;99.90
52285;DHT22;38238;53.304;6.606;2023-01-04T11:37:35;11.20;99.90
52285;DHT22;38238;53.304;6.606;2023-01-04T11:42:51;11.30;99.90
52285;DHT22;38238;53.304;6.606;2023-01-04T11:45:24;11.30;99.90
52285;DHT22;38238;53.304;6.606;2023-01-04T11:47:57;11.30;99.90
52285;DHT22;38238;53.304;6.606;2023-01-04T11:53:01;11.30;99.90
52285;DHT22;38238;53.304;6.606;2023-01-04T11:55:30;11.30;99.90
52285;DHT22;38238;53.304;6.606;2023-01-04T11:58:13;11.30;99.90
52285;DHT22;38238;53.304;6.606;2023-01-04T12:00:51;11.30;99.90
52285;DHT22;38238;53.304;6.606;2023-01-04T12:05:50;11.30;99.90
52285;DHT22;38238;53.304;6.606;2023-01-04T12:08:35;11.30;99.90
52285;DHT22;38238;53.304;6.606;2023-01-04T12:11:03;11.30;99.90
52285;DHT22;38238;53.304;6.606;2023-01-04T12:13:31;11.30;99.90
52285;DHT22;38238;53.304;6.606;2023-01-04T12:18:29;11.30;99.90
52285;DHT22;38238;53.304;6.606;2023-01-04T12:21:00;11.30;99.90
52285;DHT22;38238;53.304;6.606;2023-01-04T12:23:27;11.30;99.90
52285;DHT22;38238;53.304;6.606;2023-01-04T12:25:53;11.40;99.90
52285;DHT22;38238;53.304;6.606;2023-01-04T12:28:34;11.40;99.90
52285;DHT22;38238;53.304;6.606;2023-01-04T12:36:17;11.40;99.90
52285;DHT22;38238;53.304;6.606;2023-01-04T12:44:01;11.50;99.90
52285;DHT22;38238;53.304;6.606;2023-01-04T12:54:50;11.40;99.90
52285;DHT22;38238;53.304;6.606;2023-01-04T12:57:45;11.30;99.90
52285;DHT22;38238;53.304;6.606;2023-01-04T13:00:12;11.50;99.90
52285;DHT22;38238;53.304;6.606;2023-01-04T13:02:38;11.40;99.90
52285;DHT22;38238;53.304;6.606;2023-01-04T13:10:34;11.50;99.90
52285;DHT22;38238;53.304;6.606;2023-01-04T13:18:36;11.40;99.90
52285;DHT22;38238;53.304;6.606;2023-01-04T13:21:14;11.40;99.90
52285;DHT22;38238;53.304;6.606;2023-01-04T13:23:47;11.40;99.90
52285;DHT22;38238;53.304;6.606;2023-01-04T13:31:59;11.40;99.90
52285;DHT22;38238;53.304;6.606;2023-01-04T13:34:31;11.40;99.90
52285;DHT22;38238;53.304;6.606;2023-01-04T13:37:31;11.40;99.90
52285;DHT22;38238;53.304;6.606;2023-01-04T13:39:58;11.40;99.90
52285;DHT22;38238;53.304;6.606;2023-01-04T13:42:31;11.40;99.90
52285;DHT22;38238;53.304;6.606;2023-01-04T13:47:28;11.50;99.90
52285;DHT22;38238;53.304;6.606;2023-01-04T13:49:54;11.50;99.90
52285;DHT22;38238;53.304;6.606;2023-01-04T13:52:24;11.50;99.90
52285;DHT22;38238;53.304;6.606;2023-01-04T13:54:51;11.50;99.90
52285;DHT22;38238;53.304;6.606;2023-01-04T13:57:19;11.50;99.90
52285;DHT22;38238;53.304;6.606;2023-01-04T13:59:53;11.50;99.90
52285;DHT22;38238;53.304;6.606;2023-01-04T14:02:20;11.50;99.90
52285;DHT22;38238;53.304;6.606;2023-01-04T14:04:48;11.60;99.90
52285;DHT22;38238;53.304;6.606;2023-01-04T14:07:21;11.50;99.90
52285;DHT22;38238;53.304;6.606;2023-01-04T14:09:51;11.50;99.90
52285;DHT22;38238;53.304;6.606;2023-01-04T14:12:26;11.50;99.90
52285;DHT22;38238;53.304;6.606;2023-01-04T14:14:55;11.50;99.90
52285;DHT22;38238;53.304;6.606;2023-01-04T14:17:45;11.40;99.90
52285;DHT22;38238;53.304;6.606;2023-01-04T14:28:34;11.40;99.90
52285;DHT22;38238;53.304;6.606;2023-01-04T14:33:41;11.40;99.90
52285;DHT22;38238;53.304;6.606;2023-01-04T14:36:10;11.40;99.90
52285;DHT22;38238;53.304;6.606;2023-01-04T14:38:57;11.40;99.90
52285;DHT22;38238;53.304;6.606;2023-01-04T14:46:29;11.40;99.90
52285;DHT22;38238;53.304;6.606;2023-01-04T14:48:56;11.30;99.90
52285;DHT22;38238;53.304;6.606;2023-01-04T14:54:05;11.20;99.90
52285;DHT22;38238;53.304;6.606;2023-01-04T14:56:31;11.20;99.90
52285;DHT22;38238;53.304;6.606;2023-01-04T14:58:57;11.20;99.90
52285;DHT22;38238;53.304;6.606;2023-01-04T15:01:23;11.20;99.90
52285;DHT22;38238;53.304;6.606;2023-01-04T15:03:49;11.10;99.90
52285;DHT22;38238;53.304;6.606;2023-01-04T15:06:14;11.20;99.90
52285;DHT22;38238;53.304;6.606;2023-01-04T15:08:40;11.10;99.90
52285;DHT22;38238;53.304;6.606;2023-01-04T15:11:06;11.10;99.90
52285;DHT22;38238;53.304;6.606;2023-01-04T15:13:31;11.10;99.90
52285;DHT22;38238;53.304;6.606;2023-01-04T15:16:00;11.10;99.90
52285;DHT22;38238;53.304;6.606;2023-01-04T15:18:26;11.10;99.90
52285;DHT22;38238;53.304;6.606;2023-01-04T15:20:52;11.00;99.90
52285;DHT22;38238;53.304;6.606;2023-01-04T15:23:18;10.90;99.90
52285;DHT22;38238;53.304;6.606;2023-01-04T15:25:44;10.80;99.90
52285;DHT22;38238;53.304;6.606;2023-01-04T15:28:10;10.80;99.90
52285;DHT22;38238;53.304;6.606;2023-01-04T15:30:40;10.80;99.90
52285;DHT22;38238;53.304;6.606;2023-01-04T15:33:05;10.70;99.90
52285;DHT22;38238;53.304;6.606;2023-01-04T15:35:31;10.70;99.90
52285;DHT22;38238;53.304;6.606;2023-01-04T15:37:57;10.70;99.90
52285;DHT22;38238;53.304;6.606;2023-01-04T15:40:23;10.80;99.90
52285;DHT22;38238;53.304;6.606;2023-01-04T15:42:48;10.80;99.90
52285;DHT22;38238;53.304;6.606;2023-01-04T15:45:27;10.80;99.90
52285;DHT22;38238;53.304;6.606;2023-01-04T15:47:54;10.80;99.90
52285;DHT22;38238;53.304;6.606;2023-01-04T15:50:28;10.80;99.90
52285;DHT22;38238;53.304;6.606;2023-01-04T15:52:55;10.80;99.90
52285;DHT22;38238;53.304;6.606;2023-01-04T15:55:22;10.80;99.90
52285;DHT22;38238;53.304;6.606;2023-01-04T15:57:47;10.90;99.90
52285;DHT22;38238;53.304;6.606;2023-01-04T16:00:14;10.90;99.90
52285;DHT22;38238;53.304;6.606;2023-01-04T16:02:39;10.90;99.90
52285;DHT22;38238;53.304;6.606;2023-01-04T16:05:05;10.90;99.90
52285;DHT22;38238;53.304;6.606;2023-01-04T16:07:32;10.90;99.90
52285;DHT22;38238;53.304;6.606;2023-01-04T16:09:57;10.90;99.90
52285;DHT22;38238;53.304;6.606;2023-01-04T16:12:23;10.90;99.90
52285;DHT22;38238;53.304;6.606;2023-01-04T16:15:08;10.90;99.90
52285;DHT22;38238;53.304;6.606;2023-01-04T16:17:34;10.90;99.90
52285;DHT22;38238;53.304;6.606;2023-01-04T16:20:00;10.90;99.90
52285;DHT22;38238;53.304;6.606;2023-01-04T16:22:25;10.90;99.90
52285;DHT22;38238;53.304;6.606;2023-01-04T16:24:51;10.80;99.90
52285;DHT22;38238;53.304;6.606;2023-01-04T16:27:17;10.80;99.90
52285;DHT22;38238;53.304;6.606;2023-01-04T16:29:43;10.80;99.90
52285;DHT22;38238;53.304;6.606;2023-01-04T16:32:09;10.80;99.90
52285;DHT22;38238;53.304;6.606;2023-01-04T16:34:35;10.80;99.90
52285;DHT22;38238;53.304;6.606;2023-01-04T16:37:01;10.80;99.90
52285;DHT22;38238;53.304;6.606;2023-01-04T16:39:27;10.70;99.90
52285;DHT22;38238;53.304;6.606;2023-01-04T16:41:53;10.70;99.90
52285;DHT22;38238;53.304;6.606;2023-01-04T16:44:18;10.60;99.90
52285;DHT22;38238;53.304;6.606;2023-01-04T16:46:45;10.60;99.90
52285;DHT22;38238;53.304;6.606;2023-01-04T16:49:13;10.50;99.90
52285;DHT22;38238;53.304;6.606;2023-01-04T16:51:41;10.50;99.90
52285;DHT22;38238;53.304;6.606;2023-01-04T16:54:12;10.40;99.90
52285;DHT22;38238;53.304;6.606;2023-01-04T16:56:40;10.40;99.90
52285;DHT22;38238;53.304;6.606;2023-01-04T16:59:06;10.50;99.90
52285;DHT22;38238;53.304;6.606;2023-01-04T17:01:35;10.50;99.90
52285;DHT22;38238;53.304;6.606;2023-01-04T17:04:03;10.40;99.90
52285;DHT22;38238;53.304;6.606;2023-01-04T17:06:32;10.40;99.90
52285;DHT22;38238;53.304;6.606;2023-01-04T17:09:02;10.40;99.90
52285;DHT22;38238;53.304;6.606;2023-01-04T17:11:31;10.40;99.90
52285;DHT22;38238;53.304;6.606;2023-01-04T17:13:57;10.30;99.90
52285;DHT22;38238;53.304;6.606;2023-01-04T17:16:23;10.30;99.90
52285;DHT22;38238;53.304;6.606;2023-01-04T17:18:51;10.30;99.90
52285;DHT22;38238;53.304;6.606;2023-01-04T17:21:19;8.70;99.90
52285;DHT22;38238;53.304;6.606;2023-01-04T17:23:47;10.30;99.90
52285;DHT22;38238;53.304;6.606;2023-01-04T17:26:19;10.30;99.90
52285;DHT22;38238;53.304;6.606;2023-01-04T17:28:45;10.30;99.90
52285;DHT22;38238;53.304;6.606;2023-01-04T17:31:13;10.30;99.90
52285;DHT22;38238;53.304;6.606;2023-01-04T17:33:39;10.20;99.90
52285;DHT22;38238;53.304;6.606;2023-01-04T17:36:08;10.30;99.90
52285;DHT22;38238;53.304;6.606;2023-01-04T17:38:34;10.30;99.90
52285;DHT22;38238;53.304;6.606;2023-01-04T17:41:14;10.20;99.90
52285;DHT22;38238;53.304;6.606;2023-01-04T17:43:41;10.20;99.90
52285;DHT22;38238;53.304;6.606;2023-01-04T17:46:10;10.20;99.90
52285;DHT22;38238;53.304;6.606;2023-01-04T17:48:36;10.30;99.90
52285;DHT22;38238;53.304;6.606;2023-01-04T17:53:34;10.20;99.90
52285;DHT22;38238;53.304;6.606;2023-01-04T17:56:02;10.20;99.90
52285;DHT22;38238;53.304;6.606;2023-01-04T17:58:28;11.00;99.90